Time;durP1;ratioP1;P1;durP2;ratioP2;P2;SDS_P1;SDS_P2;PMS_P1;PMS_P2;Temp;Humidity;BMP_temperature;BMP_pressure;BME280_temperature;BME280_humidity;BME280_pressure;Samples;Min_cycle;Max_cycle;Signal;HPM_P1;HPM_P2
2022/05/06 00:00:24;;;;;;;2.95;1.10;;;15.90;99.90;;;;;;4995708;28;20033;-78
2022/05/06 00:02:52;;;;;;;2.05;1.10;;;16.00;99.90;;;;;;4997214;28;20112;-79
2022/05/06 00:05:19;;;;;;;2.70;1.17;;;16.00;99.90;;;;;;4996491;28;20046;-79
2022/05/06 00:07:46;;;;;;;4.97;1.25;;;16.00;99.90;;;;;;4995781;28;20027;-79
2022/05/06 00:10:14;;;;;;;4.22;0.98;;;16.10;99.90;;;;;;4997922;28;20086;-78
2022/05/06 00:12:42;;;;;;;4.68;1.45;;;16.30;99.90;;;;;;4995937;28;20022;-79
2022/05/06 00:15:11;;;;;;;3.22;0.82;;;16.20;99.90;;;;;;4996095;28;20050;-78
2022/05/06 00:17:39;;;;;;;2.25;0.95;;;16.50;99.90;;;;;;4995397;28;20364;-79
2022/05/06 00:20:07;;;;;;;4.03;1.02;;;16.50;99.80;;;;;;4994762;28;20478;-76
2022/05/06 00:22:34;;;;;;;3.63;1.05;;;16.30;99.80;;;;;;4995021;28;20073;-79
2022/05/06 00:25:01;;;;;;;7.65;1.27;;;16.40;99.90;;;;;;4995274;28;20030;-79
2022/05/06 00:27:29;;;;;;;6.03;0.93;;;16.40;99.90;;;;;;4995024;28;20061;-79
2022/05/06 00:29:56;;;;;;;1.85;0.80;;;16.50;99.90;;;;;;4995522;28;20022;-78
2022/05/06 00:32:24;;;;;;;3.08;0.85;;;16.50;99.70;;;;;;4995552;28;20023;-78
2022/05/06 00:34:51;;;;;;;3.33;1.27;;;16.50;99.90;;;;;;4994723;28;20039;-77
2022/05/06 00:37:18;;;;;;;3.80;0.90;;;16.60;99.90;;;;;;4993456;28;20022;-78
2022/05/06 00:39:46;;;;;;;4.13;1.40;;;16.70;99.90;;;;;;4994686;28;20126;-77
2022/05/06 00:42:13;;;;;;;3.33;1.10;;;16.80;99.90;;;;;;4993400;28;20031;-79
2022/05/06 00:44:40;;;;;;;4.40;1.15;;;17.00;99.90;;;;;;4993733;28;20027;-78
2022/05/06 00:47:08;;;;;;;4.15;0.95;;;17.00;99.80;;;;;;4994263;28;20022;-78
2022/05/06 00:49:36;;;;;;;4.85;0.93;;;17.10;99.90;;;;;;4996115;28;20030;-78
2022/05/06 00:52:07;;;;;;;1.80;0.70;;;17.00;99.90;;;;;;4998672;28;20082;-77
2022/05/06 00:54:37;;;;;;;7.18;1.38;;;17.00;99.90;;;;;;5000990;28;20105;-79
2022/05/06 00:57:07;;;;;;;2.60;0.50;;;17.10;99.90;;;;;;4998601;28;20041;-78
2022/05/06 01:00:17;;;;;;;2.17;0.60;;;17.10;99.90;;;;;;4999482;28;20048;-79
2022/05/06 01:02:26;;;;;;;2.03;0.60;;;17.10;99.70;;;;;;5000166;28;20031;-78
2022/05/06 01:04:53;;;;;;;3.58;0.63;;;17.00;99.10;;;;;;4999561;28;20272;-79
2022/05/06 01:07:22;;;;;;;2.80;0.70;;;17.00;99.60;;;;;;4999075;28;20474;-78
2022/05/06 01:09:49;;;;;;;2.38;0.70;;;16.90;99.20;;;;;;4999875;28;20030;-79
2022/05/06 01:12:17;;;;;;;3.13;1.13;;;17.20;99.80;;;;;;5002199;28;20033;-78
2022/05/06 01:14:45;;;;;;;2.45;0.77;;;17.20;99.40;;;;;;5000478;28;20027;-78
2022/05/06 01:17:13;;;;;;;2.83;0.82;;;17.20;99.10;;;;;;4998512;28;20042;-79
2022/05/06 01:19:40;;;;;;;1.60;0.60;;;17.40;99.40;;;;;;4997627;28;20122;-78
2022/05/06 01:22:07;;;;;;;3.05;0.80;;;17.50;99.90;;;;;;4998699;28;20073;-77
2022/05/06 01:24:36;;;;;;;3.83;1.05;;;17.50;99.20;;;;;;5001245;28;20023;-79
2022/05/06 01:27:07;;;;;;;3.45;0.80;;;17.50;99.70;;;;;;4999237;28;20026;-76
2022/05/06 01:29:38;;;;;;;1.60;0.63;;;17.50;99.50;;;;;;5000004;28;20023;-79
2022/05/06 01:32:05;;;;;;;;;;;17.60;99.50;;;;;;4998828;28;20026;-78
2022/05/06 01:34:33;;;;;;;3.47;0.98;;;17.60;99.10;;;;;;4997731;28;19913;-78
2022/05/06 01:37:04;;;;;;;2.67;0.90;;;17.60;99.60;;;;;;4998503;28;20041;-79
2022/05/06 01:39:37;;;;;;;1.35;0.57;;;17.60;99.10;;;;;;4997331;28;20052;-78
2022/05/06 01:42:06;;;;;;;2.05;0.63;;;17.50;98.60;;;;;;4995888;28;20026;-77
2022/05/06 01:44:40;;;;;;;2.47;0.80;;;17.80;98.50;;;;;;4995807;28;20030;-74
2022/05/06 01:47:17;;;;;;;1.67;0.60;;;17.80;98.60;;;;;;4996072;28;20072;-76
2022/05/06 01:49:46;;;;;;;2.08;0.70;;;18.00;99.00;;;;;;4997470;28;20026;-78
2022/05/06 01:52:17;;;;;;;1.33;0.60;;;18.30;98.30;;;;;;4995534;28;20397;-78
2022/05/06 01:54:45;;;;;;;1.77;0.73;;;18.30;98.20;;;;;;4996421;28;20032;-78
2022/05/06 01:57:13;;;;;;;3.97;1.05;;;18.30;97.80;;;;;;4997479;28;20475;-78
2022/05/06 01:59:40;;;;;;;1.65;0.70;;;18.40;97.90;;;;;;4997495;28;20033;-79
2022/05/06 02:02:07;;;;;;;3.53;0.90;;;18.30;97.90;;;;;;5002925;28;20023;-80
2022/05/06 02:07:20;;;;;;;1.88;0.80;;;18.80;98.80;;;;;;5005057;28;20032;-80
2022/05/06 02:09:48;;;;;;;2.67;0.98;;;18.60;96.40;;;;;;5001454;28;20034;-79
2022/05/06 02:12:16;;;;;;;2.40;0.50;;;18.40;95.70;;;;;;5002665;28;20027;-79
2022/05/06 02:14:43;;;;;;;4.40;1.30;;;18.50;96.90;;;;;;5004889;28;20077;-79
2022/05/06 02:17:11;;;;;;;3.22;0.50;;;18.60;96.50;;;;;;5003635;28;20098;-79
2022/05/06 02:19:38;;;;;;;4.30;0.60;;;18.80;98.00;;;;;;5009289;28;20108;-78
2022/05/06 02:22:06;;;;;;;1.92;0.70;;;18.70;96.50;;;;;;5007425;28;20010;-78
2022/05/06 02:24:33;;;;;;;4.28;1.10;;;18.70;97.50;;;;;;5005756;28;20026;-79
2022/05/06 02:27:01;;;;;;;2.13;0.65;;;19.00;96.70;;;;;;5002296;28;20124;-78
2022/05/06 02:29:28;;;;;;;2.20;0.65;;;19.00;94.60;;;;;;5008524;28;20046;-78
2022/05/06 02:34:44;;;;;;;2.40;0.73;;;18.80;94.10;;;;;;5014359;28;20159;-80
2022/05/06 02:37:12;;;;;;;3.20;0.80;;;18.90;95.10;;;;;;5004468;28;20405;-79
2022/05/06 02:39:39;;;;;;;3.50;0.50;;;18.90;94.30;;;;;;5003682;28;20022;-79
2022/05/06 02:42:07;;;;;;;3.45;1.02;;;18.80;94.40;;;;;;5012044;28;20042;-80
2022/05/06 02:44:34;;;;;;;5.30;0.77;;;19.00;96.10;;;;;;5005868;28;20154;-80
2022/05/06 02:47:02;;;;;;;2.03;0.65;;;19.10;97.20;;;;;;5008770;28;20027;-80
2022/05/06 02:49:29;;;;;;;3.05;0.77;;;19.20;95.10;;;;;;5008296;28;20089;-80
2022/05/06 02:51:57;;;;;;;2.22;0.70;;;19.20;94.60;;;;;;5004377;28;20033;-80
2022/05/06 02:54:24;;;;;;;2.55;0.50;;;19.10;97.30;;;;;;5005522;28;20058;-78
2022/05/06 02:56:52;;;;;;;3.90;0.65;;;19.30;94.50;;;;;;5007292;28;20026;-79
2022/05/06 02:59:19;;;;;;;2.80;0.68;;;19.10;93.80;;;;;;5004401;28;20522;-76
2022/05/06 03:01:46;;;;;;;4.45;0.80;;;19.20;94.40;;;;;;4997611;28;20027;-76
2022/05/06 03:04:14;;;;;;;3.53;0.80;;;19.30;94.60;;;;;;4995980;28;20438;-77
2022/05/06 03:06:44;;;;;;;3.33;0.70;;;19.30;94.60;;;;;;4999440;28;20077;-76
2022/05/06 03:09:12;;;;;;;2.42;0.60;;;19.30;94.90;;;;;;4996500;28;20033;-76
2022/05/06 03:11:39;;;;;;;3.97;0.80;;;19.40;93.40;;;;;;4999538;28;20026;-80
2022/05/06 03:14:07;;;;;;;4.60;0.70;;;19.30;93.50;;;;;;5001886;28;20073;-79
2022/05/06 03:16:34;;;;;;;1.30;0.60;;;19.40;93.90;;;;;;4996293;28;20027;-79
2022/05/06 03:19:01;;;;;;;1.23;0.50;;;19.50;94.30;;;;;;4996658;28;20091;-79
2022/05/06 03:21:29;;;;;;;2.60;0.70;;;19.70;94.70;;;;;;4997811;28;20045;-77
2022/05/06 03:23:58;;;;;;;3.17;1.13;;;19.70;94.30;;;;;;4995783;28;20085;-76
2022/05/06 03:26:26;;;;;;;0.87;0.40;;;19.90;94.50;;;;;;4995800;28;20033;-77
2022/05/06 03:28:57;;;;;;;3.50;0.93;;;20.00;94.00;;;;;;4994054;28;20076;-78
2022/05/06 03:31:27;;;;;;;2.45;0.70;;;20.00;93.40;;;;;;4994090;28;20042;-78
2022/05/06 03:33:54;;;;;;;;;;;20.00;93.60;;;;;;4995766;28;20029;-77
2022/05/06 03:36:22;;;;;;;3.72;0.75;;;20.10;94.00;;;;;;4994109;28;19910;-78
2022/05/06 03:38:49;;;;;;;2.65;1.08;;;20.20;94.10;;;;;;4996520;28;20026;-78
2022/05/06 03:41:17;;;;;;;2.72;1.00;;;20.00;94.00;;;;;;4994923;28;20029;-77
2022/05/06 03:43:44;;;;;;;4.15;1.00;;;19.90;93.40;;;;;;4995234;28;20033;-76
2022/05/06 03:46:12;;;;;;;3.67;0.93;;;20.10;93.70;;;;;;4997490;28;20390;-77
2022/05/06 03:48:39;;;;;;;3.22;1.15;;;20.00;92.80;;;;;;4996745;28;20019;-76
2022/05/06 03:51:22;;;;;;;2.72;0.50;;;20.00;94.10;;;;;;4999653;28;20076;-77
2022/05/06 03:53:57;;;;;;;3.78;0.80;;;19.90;92.20;;;;;;4995048;28;20025;-79
2022/05/06 03:56:27;;;;;;;2.97;0.90;;;19.90;95.30;;;;;;4994579;28;20023;-79
2022/05/06 03:58:54;;;;;;;2.50;0.90;;;20.20;93.70;;;;;;4994332;28;20138;-78
2022/05/06 04:01:22;;;;;;;3.40;0.88;;;20.20;92.50;;;;;;4994117;28;20309;-77
2022/05/06 04:03:50;;;;;;;5.10;1.08;;;20.00;92.60;;;;;;4995993;28;20034;-77
2022/05/06 04:06:17;;;;;;;3.20;0.90;;;20.00;92.50;;;;;;4995932;28;20503;-77
2022/05/06 04:08:45;;;;;;;2.05;0.80;;;20.10;93.00;;;;;;4993077;28;20029;-77
2022/05/06 04:11:13;;;;;;;4.03;0.98;;;20.20;93.30;;;;;;4994454;28;20038;-77
2022/05/06 04:13:41;;;;;;;1.77;0.70;;;20.10;92.80;;;;;;4995561;28;20049;-77
2022/05/06 04:16:08;;;;;;;3.47;0.98;;;19.80;92.30;;;;;;4995249;28;20026;-77
2022/05/06 04:18:35;;;;;;;2.58;1.00;;;19.80;92.40;;;;;;4992917;28;20031;-76
2022/05/06 04:23:48;;;;;;;4.32;1.17;;;19.90;93.80;;;;;;4994283;28;20025;-76
2022/05/06 04:26:16;;;;;;;2.95;0.98;;;19.90;92.60;;;;;;4992500;28;20375;-76
2022/05/06 04:28:45;;;;;;;4.28;1.10;;;19.90;92.20;;;;;;4993997;28;20029;-77
2022/05/06 04:31:13;;;;;;;1.75;0.70;;;19.90;92.60;;;;;;4992767;28;20022;-77
2022/05/06 04:33:41;;;;;;;3.03;1.20;;;19.90;92.80;;;;;;4994223;28;20542;-75
2022/05/06 04:36:09;;;;;;;2.75;0.90;;;20.10;93.40;;;;;;4992827;28;20031;-76
2022/05/06 04:38:37;;;;;;;1.38;0.70;;;20.10;92.60;;;;;;4993468;28;20113;-77
2022/05/06 04:41:04;;;;;;;4.00;1.30;;;19.90;92.30;;;;;;4994081;28;20434;-77
2022/05/06 04:43:32;;;;;;;4.53;0.90;;;19.90;91.70;;;;;;4992592;28;20026;-77
2022/05/06 04:45:59;;;;;;;3.30;0.80;;;19.70;92.50;;;;;;4993892;28;20072;-76
2022/05/06 04:48:30;;;;;;;2.35;0.55;;;19.70;93.10;;;;;;4977501;28;20054;-76
2022/05/06 04:50:57;;;;;;;3.05;0.70;;;19.60;93.40;;;;;;4996640;28;20033;-80
2022/05/06 04:53:25;;;;;;;2.70;0.77;;;19.60;93.20;;;;;;4996761;28;20057;-80
2022/05/06 04:55:53;;;;;;;2.72;0.85;;;19.50;93.60;;;;;;4995390;28;20039;-79
2022/05/06 04:58:20;;;;;;;2.95;0.68;;;19.40;93.30;;;;;;4994718;28;20538;-81
2022/05/06 05:00:47;;;;;;;1.08;0.43;;;19.40;92.90;;;;;;4995758;28;20018;-81
2022/05/06 05:03:15;;;;;;;6.10;1.35;;;19.30;93.30;;;;;;5001284;28;20010;-81
2022/05/06 05:05:43;;;;;;;2.38;0.88;;;19.40;93.90;;;;;;4994276;28;20054;-80
2022/05/06 05:08:10;;;;;;;1.77;0.80;;;19.30;94.50;;;;;;4993094;28;20208;-79
2022/05/06 05:10:38;;;;;;;1.98;0.80;;;19.20;93.40;;;;;;4994691;28;20018;-79
2022/05/06 05:13:05;;;;;;;1.90;0.63;;;19.10;93.10;;;;;;4994766;28;20506;-80
2022/05/06 05:15:33;;;;;;;1.98;0.70;;;19.10;94.10;;;;;;4994461;28;20026;-79
2022/05/06 05:18:01;;;;;;;2.45;0.90;;;19.00;93.00;;;;;;4994364;28;20073;-79
2022/05/06 05:20:28;;;;;;;2.00;0.77;;;19.00;93.60;;;;;;4994590;28;20026;-79
2022/05/06 05:22:55;;;;;;;1.33;0.68;;;19.00;95.50;;;;;;4993762;28;20014;-80
2022/05/06 05:25:23;;;;;;;4.90;1.00;;;18.90;94.20;;;;;;4992815;28;20030;-79
2022/05/06 05:27:50;;;;;;;1.92;0.70;;;18.90;94.60;;;;;;4993798;28;20081;-77
2022/05/06 05:30:17;;;;;;;3.83;1.20;;;18.80;94.80;;;;;;4992313;28;20026;-78
2022/05/06 05:32:45;;;;;;;2.35;1.00;;;18.80;94.30;;;;;;4993552;28;20022;-78
2022/05/06 05:35:12;;;;;;;3.03;0.82;;;18.70;95.20;;;;;;4992624;28;20018;-78
2022/05/06 05:37:39;;;;;;;2.33;0.88;;;18.70;94.10;;;;;;4994183;28;20507;-78
2022/05/06 05:40:07;;;;;;;2.13;0.65;;;18.70;94.50;;;;;;4995504;28;20058;-79
2022/05/06 05:42:35;;;;;;;2.17;0.65;;;18.60;93.70;;;;;;4996076;28;20030;-78
2022/05/06 05:50:35;;;;;;;2.22;0.60;;;18.40;95.50;;;;;;5000222;28;20081;-78
2022/05/06 05:53:05;;;;;;;3.40;0.90;;;18.30;93.30;;;;;;4995795;28;20403;-78
2022/05/06 05:55:32;;;;;;;1.50;0.70;;;18.30;94.90;;;;;;4997802;28;20033;-79
2022/05/06 05:57:59;;;;;;;2.53;0.85;;;18.30;98.60;;;;;;4995982;28;20081;-79
2022/05/06 06:00:27;;;;;;;2.28;0.65;;;18.20;95.70;;;;;;4997375;28;20028;-78
2022/05/06 06:02:56;;;;;;;1.98;0.60;;;18.10;95.40;;;;;;4997577;28;20050;-78
2022/05/06 06:05:24;;;;;;;2.00;0.60;;;18.10;94.80;;;;;;4996736;28;20060;-78
2022/05/06 06:07:51;;;;;;;0.95;0.40;;;18.10;94.40;;;;;;4997006;28;20121;-78
2022/05/06 06:10:18;;;;;;;1.35;0.70;;;18.00;94.70;;;;;;4997539;28;20022;-77
2022/05/06 06:12:46;;;;;;;1.73;0.70;;;17.90;95.20;;;;;;4995665;28;20023;-77
2022/05/06 06:15:15;;;;;;;5.25;1.05;;;17.80;94.70;;;;;;4997413;28;20033;-77
2022/05/06 06:17:42;;;;;;;2.72;0.63;;;17.70;97.50;;;;;;4996205;28;20118;-77
2022/05/06 06:20:10;;;;;;;2.03;0.70;;;17.70;96.40;;;;;;4996423;28;20029;-77
2022/05/06 06:22:38;;;;;;;3.95;1.25;;;17.60;96.60;;;;;;4995211;28;20391;-76
2022/05/06 06:25:06;;;;;;;1.70;0.75;;;17.50;97.10;;;;;;4994751;28;20077;-77
2022/05/06 06:27:34;;;;;;;1.75;0.70;;;17.40;98.50;;;;;;4994836;28;20061;-78
2022/05/06 06:30:02;;;;;;;1.67;0.40;;;17.40;98.00;;;;;;4995346;28;20065;-77
2022/05/06 06:32:30;;;;;;;1.67;0.55;;;17.40;96.40;;;;;;4995308;28;20395;-77
2022/05/06 06:34:57;;;;;;;2.15;0.70;;;17.30;96.60;;;;;;4994702;28;20026;-78
2022/05/06 06:37:25;;;;;;;2.20;1.00;;;17.20;97.80;;;;;;4994884;28;20027;-78
2022/05/06 06:39:53;;;;;;;2.10;0.77;;;17.10;99.40;;;;;;4994838;28;20113;-78
2022/05/06 06:42:20;;;;;;;1.17;0.68;;;17.00;99.90;;;;;;4996921;28;20030;-78
2022/05/06 06:44:48;;;;;;;3.70;1.00;;;16.90;99.90;;;;;;4996059;28;20019;-79
2022/05/06 06:47:15;;;;;;;2.38;1.08;;;16.80;99.90;;;;;;4995253;28;20032;-78
2022/05/06 06:49:44;;;;;;;2.45;0.80;;;16.70;99.90;;;;;;4996045;28;20030;-78
2022/05/06 06:52:13;;;;;;;2.63;1.20;;;16.60;99.90;;;;;;4996311;28;20053;-78
2022/05/06 06:54:41;;;;;;;4.05;0.93;;;16.60;99.90;;;;;;4997018;28;20393;-78
2022/05/06 06:57:08;;;;;;;3.40;0.77;;;16.50;99.50;;;;;;4996252;28;20026;-78
2022/05/06 06:59:35;;;;;;;2.17;0.88;;;16.40;99.90;;;;;;4994342;28;20399;-78
2022/05/06 07:02:03;;;;;;;2.65;1.10;;;16.40;99.90;;;;;;4995526;28;20026;-77
2022/05/06 07:04:30;;;;;;;2.25;1.08;;;16.30;99.90;;;;;;4995751;28;20081;-77
2022/05/06 07:12:28;;;;;;;3.45;1.00;;;16.00;99.90;;;;;;4995609;28;20037;-78
2022/05/06 07:14:55;;;;;;;3.28;1.00;;;15.90;99.90;;;;;;4994041;28;20041;-78
2022/05/06 07:17:23;;;;;;;4.78;1.20;;;15.80;99.90;;;;;;4995573;28;20022;-79
2022/05/06 07:19:50;;;;;;;3.10;1.10;;;15.90;99.90;;;;;;4993833;28;20026;-77
2022/05/06 07:22:18;;;;;;;2.20;1.10;;;15.80;99.90;;;;;;4995464;28;20018;-79
2022/05/06 07:24:45;;;;;;;2.05;1.27;;;15.90;99.90;;;;;;4995361;28;20030;-79
2022/05/06 07:27:13;;;;;;;3.45;1.35;;;16.10;99.90;;;;;;4994652;28;20090;-79
2022/05/06 07:29:40;;;;;;;4.82;1.50;;;16.00;99.90;;;;;;4995773;28;20069;-79
2022/05/06 07:32:08;;;;;;;3.95;1.70;;;15.80;99.90;;;;;;4996175;28;20037;-78
2022/05/06 07:34:36;;;;;;;4.32;1.73;;;15.60;99.90;;;;;;4994819;28;20580;-78
2022/05/06 07:37:03;;;;;;;2.70;1.50;;;15.50;99.90;;;;;;4994413;28;20016;-78
2022/05/06 07:39:31;;;;;;;6.03;1.90;;;15.30;99.90;;;;;;4995012;28;20049;-76
2022/05/06 07:41:58;;;;;;;7.50;2.33;;;15.20;99.90;;;;;;4993721;28;20031;-78
2022/05/06 07:44:25;;;;;;;12.80;4.35;;;15.20;99.90;;;;;;4994975;28;20080;-77
2022/05/06 07:46:52;;;;;;;13.43;6.03;;;15.10;99.90;;;;;;4993270;28;20108;-78
2022/05/06 07:49:20;;;;;;;34.22;19.05;;;15.10;99.90;;;;;;4994695;28;20555;-76
2022/05/06 07:51:47;;;;;;;26.05;14.93;;;14.90;99.90;;;;;;4993351;28;20047;-76
2022/05/06 07:54:15;;;;;;;24.33;15.45;;;14.90;99.90;;;;;;4993225;28;20054;-77
2022/05/06 07:56:42;;;;;;;70.13;45.10;;;14.90;99.90;;;;;;4994572;28;20101;-77
2022/05/06 07:59:09;;;;;;;47.67;30.08;;;14.90;99.90;;;;;;4993597;28;20022;-77
2022/05/06 08:04:35;;;;;;;533.00;359.55;;;14.90;99.90;;;;;;4994751;28;20045;-79
2022/05/06 08:07:06;;;;;;;502.63;318.83;;;15.10;99.90;;;;;;4993616;28;20104;-79
2022/05/06 08:09:35;;;;;;;275.13;163.38;;;15.10;99.90;;;;;;4995099;28;20026;-79
2022/05/06 08:12:02;;;;;;;381.25;243.25;;;15.10;99.90;;;;;;4995728;28;20090;-77
2022/05/06 08:14:30;;;;;;;254.75;157.00;;;15.10;99.90;;;;;;4995887;28;20109;-78
2022/05/06 08:16:58;;;;;;;189.23;112.97;;;15.00;99.90;;;;;;4994808;28;20098;-76
2022/05/06 08:19:26;;;;;;;109.80;68.90;;;15.00;99.90;;;;;;4995007;28;20097;-77
2022/05/06 08:21:54;;;;;;;120.47;70.72;;;14.80;99.90;;;;;;4995930;28;20062;-77
2022/05/06 08:24:23;;;;;;;126.68;75.28;;;14.90;99.90;;;;;;4999483;28;20030;-77
2022/05/06 08:26:50;;;;;;;86.47;52.78;;;14.80;99.90;;;;;;4996872;28;20462;-77
2022/05/06 08:29:18;;;;;;;79.18;48.58;;;14.70;99.90;;;;;;4998554;28;20471;-79
2022/05/06 08:31:45;;;;;;;64.20;40.83;;;14.60;99.90;;;;;;4999764;28;20022;-77
2022/05/06 08:34:14;;;;;;;26.02;13.55;;;14.70;99.90;;;;;;4997311;28;20081;-77
2022/05/06 08:36:45;;;;;;;45.65;27.35;;;14.60;99.90;;;;;;4982993;28;20034;-78
2022/05/06 08:39:14;;;;;;;54.22;34.53;;;14.50;99.90;;;;;;4998050;28;20030;-78
2022/05/06 08:41:41;;;;;;;39.40;25.65;;;14.60;99.90;;;;;;4992847;28;20030;-77
2022/05/06 08:52:37;;;;;;;22.08;12.32;;;14.30;99.90;;;;;;4994577;28;20089;-77
2022/05/06 08:55:06;;;;;;;25.60;14.75;;;14.40;99.90;;;;;;4993670;28;20482;-76
2022/05/06 08:57:35;;;;;;;19.73;11.63;;;14.40;99.90;;;;;;4992304;28;20069;-76
2022/05/06 09:00:07;;;;;;;18.23;12.75;;;14.30;99.90;;;;;;4993683;28;20073;-76
2022/05/06 09:02:38;;;;;;;16.92;10.25;;;14.20;99.90;;;;;;4992447;28;20023;-76
2022/05/06 09:05:13;;;;;;;;;;;14.20;99.90;;;;;;4992689;28;20057;-76
2022/05/06 09:07:41;;;;;;;11.48;7.50;;;14.10;99.90;;;;;;4992385;28;19996;-76
2022/05/06 09:10:15;;;;;;;15.60;8.15;;;14.00;99.90;;;;;;4993626;28;20395;-76
2022/05/06 09:12:46;;;;;;;9.30;5.85;;;13.90;99.90;;;;;;4994257;28;20050;-76
2022/05/06 09:18:07;;;;;;;6.07;2.63;;;13.80;99.90;;;;;;4997534;28;20040;-77
2022/05/06 09:20:36;;;;;;;8.15;3.05;;;13.70;99.90;;;;;;4996703;28;20022;-77
2022/05/06 09:23:28;;;;;;;7.13;3.13;;;13.50;99.90;;;;;;4997572;28;20042;-77
2022/05/06 09:25:56;;;;;;;5.40;2.50;;;13.40;99.90;;;;;;4996343;28;20534;-77
2022/05/06 09:28:29;;;;;;;5.50;2.60;;;13.20;99.90;;;;;;4996231;28;20061;-78
2022/05/06 09:31:02;;;;;;;5.70;3.03;;;13.10;99.90;;;;;;4995982;28;20030;-76
2022/05/06 09:33:31;;;;;;;6.68;2.47;;;13.10;99.90;;;;;;4996098;28;20032;-77
2022/05/06 09:35:59;;;;;;;5.85;2.60;;;13.00;99.90;;;;;;4997157;28;20073;-78
2022/05/06 09:38:29;;;;;;;7.10;3.40;;;13.00;99.90;;;;;;4996012;28;20061;-77
2022/05/06 09:40:57;;;;;;;5.40;2.45;;;13.00;99.90;;;;;;4995734;28;20053;-77
2022/05/06 09:43:26;;;;;;;5.65;2.63;;;13.00;99.90;;;;;;4995756;28;20033;-77
2022/05/06 09:45:53;;;;;;;3.72;1.90;;;13.00;99.90;;;;;;4997625;28;20175;-77
2022/05/06 09:48:21;;;;;;;5.88;2.00;;;13.00;99.90;;;;;;4995465;28;20038;-77
2022/05/06 09:50:50;;;;;;;5.68;2.15;;;13.10;99.90;;;;;;4996957;28;20025;-77
2022/05/06 09:53:20;;;;;;;4.03;2.17;;;13.20;99.90;;;;;;4995439;28;20022;-77
2022/05/06 09:55:49;;;;;;;4.43;1.92;;;13.20;99.90;;;;;;4999433;28;20383;-77
2022/05/06 09:58:17;;;;;;;5.72;2.00;;;13.30;99.90;;;;;;4996676;28;20029;-77
2022/05/06 10:00:45;;;;;;;3.35;1.80;;;13.40;99.90;;;;;;4996651;28;20019;-76
2022/05/06 10:03:12;;;;;;;3.63;2.00;;;13.40;99.90;;;;;;4999649;28;20025;-76
2022/05/06 10:05:40;;;;;;;4.28;2.50;;;13.50;99.90;;;;;;4996293;28;20043;-76
2022/05/06 10:08:14;;;;;;;3.70;1.90;;;13.60;99.90;;;;;;4995032;28;20030;-76
2022/05/06 10:10:55;;;;;;;4.22;2.35;;;13.60;99.90;;;;;;4995084;28;20026;-76
2022/05/06 10:13:25;;;;;;;5.38;2.17;;;13.80;99.90;;;;;;4996681;28;20374;-76
2022/05/06 10:15:54;;;;;;;4.05;2.17;;;13.90;99.90;;;;;;4996695;28;20451;-76
2022/05/06 10:18:34;;;;;;;6.22;2.60;;;14.00;99.90;;;;;;4996178;28;20022;-77
2022/05/06 10:21:06;;;;;;;5.05;2.55;;;14.00;99.90;;;;;;4994942;28;20038;-76
2022/05/06 10:23:50;;;;;;;4.60;2.67;;;14.00;99.90;;;;;;4994898;28;20038;-76
2022/05/06 10:26:45;;;;;;;6.57;2.33;;;13.90;99.90;;;;;;4994749;28;20056;-76
2022/05/06 10:32:36;;;;;;;4.20;2.25;;;14.10;99.90;;;;;;4996167;28;20121;-77
2022/05/06 10:35:05;;;;;;;7.95;3.15;;;14.20;99.90;;;;;;4995932;28;20044;-77
2022/05/06 10:37:45;;;;;;;5.15;2.30;;;14.00;99.90;;;;;;4994717;28;20027;-77
2022/05/06 10:40:25;;;;;;;5.15;2.53;;;14.00;99.90;;;;;;4994838;28;20054;-77
2022/05/06 10:42:53;;;;;;;6.43;2.20;;;13.90;99.90;;;;;;4994768;28;20054;-77
2022/05/06 10:45:27;;;;;;;5.38;2.40;;;13.90;99.90;;;;;;4996198;28;20478;-76
2022/05/06 10:47:54;;;;;;;5.47;2.95;;;13.80;99.90;;;;;;4994961;28;20081;-77
2022/05/06 10:50:25;;;;;;;6.15;2.67;;;13.60;99.90;;;;;;4995885;28;20093;-77
2022/05/06 10:53:00;;;;;;;8.13;2.67;;;13.60;99.90;;;;;;4989565;28;20023;-77
2022/05/06 10:55:27;;;;;;;5.05;2.30;;;13.60;99.90;;;;;;4999272;28;20030;-77
2022/05/06 10:57:57;;;;;;;7.35;3.20;;;13.50;99.90;;;;;;4996695;28;20542;-77
2022/05/06 11:00:27;;;;;;;5.03;2.17;;;13.60;99.90;;;;;;4995601;28;20025;-77
2022/05/06 11:02:58;;;;;;;6.03;2.53;;;13.70;99.90;;;;;;4978411;28;20058;-78
2022/05/06 11:05:28;;;;;;;5.00;2.33;;;13.80;99.90;;;;;;4995637;28;20038;-77
2022/05/06 11:07:58;;;;;;;10.00;4.27;;;13.80;99.90;;;;;;4994405;28;20030;-78
2022/05/06 11:10:28;;;;;;;5.38;3.00;;;13.80;99.90;;;;;;4994275;28;20057;-77
2022/05/06 11:12:58;;;;;;;5.65;2.58;;;13.80;99.90;;;;;;4994309;28;20022;-77
2022/05/06 11:15:33;;;;;;;7.75;3.63;;;13.80;99.90;;;;;;4994132;28;20065;-78
2022/05/06 11:18:06;;;;;;;8.07;3.15;;;13.70;99.90;;;;;;4994138;28;20034;-78
2022/05/06 11:20:36;;;;;;;6.75;3.35;;;13.50;99.90;;;;;;4993969;28;20022;-78
2022/05/06 11:23:04;;;;;;;7.70;3.97;;;13.40;99.90;;;;;;4993997;28;20074;-78
2022/05/06 11:25:34;;;;;;;6.82;3.50;;;13.30;99.90;;;;;;4993998;28;20042;-77
2022/05/06 11:28:16;;;;;;;6.57;3.00;;;13.20;99.90;;;;;;4993928;28;20019;-77
2022/05/06 11:30:46;;;;;;;4.75;2.70;;;13.30;99.90;;;;;;4995141;28;20027;-78
2022/05/06 11:33:26;;;;;;;6.28;3.00;;;13.40;99.90;;;;;;4993879;28;20033;-77
2022/05/06 11:36:02;;;;;;;6.57;1.95;;;13.30;99.90;;;;;;4992903;28;20129;-77
2022/05/06 11:38:40;;;;;;;4.53;1.77;;;13.30;99.90;;;;;;4993564;28;20139;-76
2022/05/06 11:41:11;;;;;;;4.88;1.70;;;13.40;99.90;;;;;;4994359;28;20113;-80
2022/05/06 11:43:40;;;;;;;2.88;1.50;;;13.40;99.90;;;;;;4996043;28;20482;-81
2022/05/06 11:49:00;;;;;;;3.95;1.55;;;13.30;99.90;;;;;;4997237;28;20061;-80
2022/05/06 11:51:40;;;;;;;3.58;1.73;;;13.30;99.90;;;;;;4996220;28;20391;-79
2022/05/06 11:54:08;;;;;;;3.10;1.30;;;13.30;99.90;;;;;;4996118;28;20569;-80
2022/05/06 11:56:36;;;;;;;3.47;1.70;;;13.30;99.90;;;;;;4994430;28;20395;-80
2022/05/06 11:59:04;;;;;;;4.40;1.65;;;13.30;99.90;;;;;;4995982;28;20023;-79
2022/05/06 12:01:34;;;;;;;4.28;1.50;;;13.20;99.90;;;;;;4995834;28;20057;-80
2022/05/06 12:04:09;;;;;;;5.45;1.75;;;13.20;99.90;;;;;;4995524;28;20057;-79
2022/05/06 12:06:38;;;;;;;5.13;2.28;;;13.10;99.90;;;;;;4995578;28;20033;-80
2022/05/06 12:09:14;;;;;;;3.15;1.33;;;13.10;99.90;;;;;;4999673;28;20438;-77
2022/05/06 12:11:43;;;;;;;3.65;1.40;;;13.00;99.90;;;;;;4997646;28;20029;-81
2022/05/06 12:14:19;;;;;;;2.42;1.10;;;12.90;99.90;;;;;;4994694;28;20034;-80
2022/05/06 12:17:18;;;;;;;2.55;1.23;;;12.90;99.90;;;;;;4997478;28;20026;-78
2022/05/06 12:19:47;;;;;;;2.22;1.13;;;12.90;99.90;;;;;;4986170;28;20471;-79
2022/05/06 12:22:25;;;;;;;1.45;0.90;;;12.80;99.90;;;;;;4994786;28;20483;-79
2022/05/06 12:24:58;;;;;;;2.75;1.13;;;12.80;99.90;;;;;;4996008;28;20023;-79
2022/05/06 12:27:30;;;;;;;1.90;0.80;;;12.80;99.90;;;;;;4996308;28;20030;-80
2022/05/06 12:29:59;;;;;;;2.25;1.00;;;12.80;99.90;;;;;;4996199;28;20030;-79
2022/05/06 12:32:30;;;;;;;1.90;1.13;;;12.80;99.90;;;;;;4995346;28;20072;-79
2022/05/06 12:35:09;;;;;;;0.82;0.60;;;12.80;99.90;;;;;;4996278;28;20057;-80
2022/05/06 12:37:37;;;;;;;3.55;1.33;;;12.70;99.90;;;;;;4994742;28;20066;-80
2022/05/06 12:40:05;;;;;;;4.65;1.00;;;12.70;99.90;;;;;;4995352;28;20029;-80
2022/05/06 12:42:32;;;;;;;3.45;0.88;;;12.70;99.90;;;;;;4994906;28;20106;-79
2022/05/06 12:45:04;;;;;;;2.38;1.20;;;12.70;99.90;;;;;;4993989;28;20026;-80
2022/05/06 12:50:17;;;;;;;4.07;1.40;;;12.70;99.90;;;;;;4995321;28;20142;-79
2022/05/06 12:52:44;;;;;;;2.13;1.20;;;12.70;99.90;;;;;;4993525;28;20041;-80
2022/05/06 12:55:12;;;;;;;3.13;0.90;;;12.70;99.90;;;;;;4993882;28;20022;-80
2022/05/06 12:57:39;;;;;;;2.08;0.98;;;12.70;99.90;;;;;;4994284;28;20022;-79
2022/05/06 13:00:07;;;;;;;2.22;1.00;;;12.60;99.90;;;;;;4999397;28;20396;-78
2022/05/06 13:02:34;;;;;;;2.20;1.08;;;12.60;99.90;;;;;;5000067;28;20071;-78
2022/05/06 13:05:02;;;;;;;2.03;1.30;;;12.60;99.90;;;;;;4996249;28;20050;-79
2022/05/06 13:07:32;;;;;;;2.45;0.82;;;12.50;99.90;;;;;;4996326;28;20030;-80
2022/05/06 13:10:01;;;;;;;2.08;0.85;;;12.50;99.90;;;;;;4993886;28;20037;-79
2022/05/06 13:12:28;;;;;;;2.75;0.85;;;12.40;99.90;;;;;;4994069;28;20030;-79
2022/05/06 13:14:55;;;;;;;2.05;0.80;;;12.40;99.90;;;;;;4995895;28;20088;-79
2022/05/06 13:17:23;;;;;;;2.08;0.80;;;12.40;99.90;;;;;;4995342;28;20065;-79
2022/05/06 13:19:51;;;;;;;2.35;0.90;;;12.40;99.90;;;;;;4995007;28;20085;-78
2022/05/06 13:22:19;;;;;;;3.42;0.95;;;12.30;99.90;;;;;;4994782;28;20033;-79
2022/05/06 13:24:47;;;;;;;6.68;0.65;;;12.30;99.90;;;;;;4993811;28;20026;-79
2022/05/06 13:27:14;;;;;;;1.80;0.63;;;12.20;99.90;;;;;;4994976;28;20087;-79
2022/05/06 13:29:41;;;;;;;2.38;0.60;;;12.20;99.90;;;;;;4994451;28;20057;-78
2022/05/06 13:32:09;;;;;;;6.40;0.77;;;12.10;99.90;;;;;;4994881;28;20078;-79
2022/05/06 13:34:36;;;;;;;1.70;0.80;;;12.10;99.90;;;;;;4995489;28;20076;-78
2022/05/06 13:37:04;;;;;;;3.63;1.00;;;12.10;99.90;;;;;;4995595;28;20432;-78